Crested Butte So, Colorado
Current Conditions -  °F | °C
As of 12:53 PM on Friday 28 Nov 2014 (Local Time) from KASE Reporting Station
Clear Clear  
Wind Chill: 50°   Ceiling: Unl
Heat Index: 50°   Visibility: 10mi
Dew Point: 19°   Wind: 6mph
Humidity: 29%   Direction: 350°N
Pressure: 30.1"   Gusts: NA
Location:  38.8977°N, 106.967°W
Report Text: KASE 281953Z 35005KT 10SM CLR 10/M07 A3010 RMK AO2 SLP136 T01001072
Loading
Personal Weather Stations






























Interactive Weather Map New forecast layout! Learn more

10-Day Weather Forecast

Advertisements
Track Severe Weather on mobile